Pagrindinis puslapis
METAR-TAF:

METAR-TAF

Oro uostai :

Al-Hasa, Saudo Arabija

platuma: 25-18N, ilguma: 049-29E, Aukštis: 179 m

Dabartinis oras

Ataskaita buvo paskelbta 30 minutes, ne 07:00 UTC
Ramus vėjas
Temperatūra 32°C
Drėgmė 29%
Slėgis 1016 hPa
Matomumas 10 km arba daugiau
nėra debesų žemiau 1500 m ir nėra kamuolinių lietaus debesų

METAR: OEAH 260700Z 00000KT CAVOK 32/12 Q1016 NOSIG

Laikas: 10:30 (07:30 UTC)

Prognozė

Ataskaita buvo paskelbta 8 valandos ir 30 minutes, ne 23:00 UTC
Prognozė galioja nuo 26 metu 00 UTC su 27 metu 06 UTC
Vėjas 3 kt nuo kintamojo kryptimis
Matomumas: 6000 m
Laikinai
nuo 26 metu 00 UTC su 26 metu 05 UTC
Matomumas: 3000 m
rūkana
Tikimybė 30% :
Laikinai
nuo 26 metu 02 UTC su 26 metu 05 UTC
Matomumas: 0500 m
rūkas
Tapsmas
nuo 26 metu 06 UTC su 26 metu 08 UTC
Vėjas 14 kt iš Rytų/Pietryčių

TAF: OEAH 252300Z 2600/2706 VRB03KT 6000 NSC TEMPO 2600/2605 3000 BR PROB30 TEMPO 2602/2605 0500 FG BECMG 2606/2608 12014KT

Orai ataskaitas ir orų prognozės (METAR, TAF).

turimą stotys yra geltonos ir raudonos taškus žemėlapyje.

Perkelti pele per norėdami pamatyti stoties vardą.

Tada spustelėkite, norėdami matyti oro stebėjimo ir prognozės.

Norėdami pakeisti žemėlapį: spustelėkite ant žalios mygtukų su juodo kryžiaus žemyn,; žalią mygtuką su brūkšneliu, jei norite nutolinti; arba žalių rodyklių gretimoms žemėlapius.


METAR-TAF: